sensor_id;sensor_type;location;lat;lon;timestamp;pressure;altitude;pressure_sealevel;temperature;humidity
21594;BME280;10959;51.328;7.322;2022-09-09T00:01:33;98088.13;;;19.31;70.81
21594;BME280;10959;51.328;7.322;2022-09-09T00:04:11;98096.63;;;19.28;70.68
21594;BME280;10959;51.328;7.322;2022-09-09T00:06:45;98095.91;;;19.26;71.50
21594;BME280;10959;51.328;7.322;2022-09-09T00:09:16;98097.63;;;19.27;71.13
21594;BME280;10959;51.328;7.322;2022-09-09T00:11:46;98096.78;;;19.26;71.94
21594;BME280;10959;51.328;7.322;2022-09-09T00:14:19;98098.50;;;19.17;71.17
21594;BME280;10959;51.328;7.322;2022-09-09T00:16:54;98094.78;;;19.19;71.88
21594;BME280;10959;51.328;7.322;2022-09-09T00:19:25;98094.47;;;19.22;71.97
21594;BME280;10959;51.328;7.322;2022-09-09T00:22:02;98095.09;;;19.15;71.70
21594;BME280;10959;51.328;7.322;2022-09-09T00:24:39;98092.94;;;19.09;72.03
21594;BME280;10959;51.328;7.322;2022-09-09T00:27:11;98085.59;;;19.20;72.12
21594;BME280;10959;51.328;7.322;2022-09-09T00:29:43;98082.72;;;19.11;71.95
21594;BME280;10959;51.328;7.322;2022-09-09T00:32:14;98077.28;;;19.11;72.51
21594;BME280;10959;51.328;7.322;2022-09-09T00:34:47;98080.31;;;19.08;72.54
21594;BME280;10959;51.328;7.322;2022-09-09T00:37:14;98073.84;;;19.09;72.51
21594;BME280;10959;51.328;7.322;2022-09-09T00:39:44;98068.97;;;19.03;72.88
21594;BME280;10959;51.328;7.322;2022-09-09T00:42:15;98074.41;;;19.03;72.61
21594;BME280;10959;51.328;7.322;2022-09-09T00:44:52;98066.97;;;18.86;72.83
21594;BME280;10959;51.328;7.322;2022-09-09T00:47:44;98071.91;;;18.72;73.18
21594;BME280;10959;51.328;7.322;2022-09-09T00:50:29;98061.84;;;18.73;73.13
21594;BME280;10959;51.328;7.322;2022-09-09T00:53:05;98060.38;;;18.78;72.95
21594;BME280;10959;51.328;7.322;2022-09-09T00:55:43;98059.25;;;18.81;73.01
21594;BME280;10959;51.328;7.322;2022-09-09T00:58:13;98067.81;;;18.86;73.34
21594;BME280;10959;51.328;7.322;2022-09-09T01:00:43;98065.25;;;18.85;72.97
21594;BME280;10959;51.328;7.322;2022-09-09T01:03:19;98070.47;;;18.68;73.47
21594;BME280;10959;51.328;7.322;2022-09-09T01:05:56;98060.97;;;18.72;73.42
21594;BME280;10959;51.328;7.322;2022-09-09T01:08:48;98074.78;;;18.51;73.48
21594;BME280;10959;51.328;7.322;2022-09-09T01:11:21;98072.88;;;18.71;73.14
21594;BME280;10959;51.328;7.322;2022-09-09T01:13:53;98076.22;;;18.65;73.41
21594;BME280;10959;51.328;7.322;2022-09-09T01:16:25;98070.47;;;18.68;73.60
21594;BME280;10959;51.328;7.322;2022-09-09T01:18:54;98070.47;;;18.68;73.28
21594;BME280;10959;51.328;7.322;2022-09-09T01:21:32;98075.06;;;18.58;73.36
21594;BME280;10959;51.328;7.322;2022-09-09T01:24:18;98076.22;;;18.45;73.67
21594;BME280;10959;51.328;7.322;2022-09-09T01:26:49;98059.56;;;18.58;74.02
21594;BME280;10959;51.328;7.322;2022-09-09T01:29:18;98059.84;;;18.65;73.57
21594;BME280;10959;51.328;7.322;2022-09-09T01:31:53;98065.88;;;18.59;73.81
21594;BME280;10959;51.328;7.322;2022-09-09T01:34:21;98065.56;;;18.72;73.55
21594;BME280;10959;51.328;7.322;2022-09-09T01:36:53;98061.53;;;18.66;73.60
21594;BME280;10959;51.328;7.322;2022-09-09T01:39:22;98061.84;;;18.73;73.71
21594;BME280;10959;51.328;7.322;2022-09-09T01:41:50;98061.69;;;18.74;73.72
21594;BME280;10959;51.328;7.322;2022-09-09T01:44:17;98065.28;;;18.75;73.80
21594;BME280;10959;51.328;7.322;2022-09-09T01:46:44;98064.13;;;18.77;74.11
21594;BME280;10959;51.328;7.322;2022-09-09T01:49:10;98063.25;;;18.77;74.13
21594;BME280;10959;51.328;7.322;2022-09-09T01:51:38;98072.44;;;18.76;73.95
21594;BME280;10959;51.328;7.322;2022-09-09T01:54:07;98067.28;;;18.73;74.01
21594;BME280;10959;51.328;7.322;2022-09-09T01:56:40;98063.13;;;18.59;73.85
21594;BME280;10959;51.328;7.322;2022-09-09T01:59:22;98068.19;;;18.54;73.79
21594;BME280;10959;51.328;7.322;2022-09-09T02:01:59;98058.97;;;18.55;73.91
21594;BME280;10959;51.328;7.322;2022-09-09T02:04:36;98065.91;;;18.49;74.33
21594;BME280;10959;51.328;7.322;2022-09-09T02:07:07;98069.88;;;18.55;73.34
21594;BME280;10959;51.328;7.322;2022-09-09T02:09:39;98069.88;;;18.55;73.68
21594;BME280;10959;51.328;7.322;2022-09-09T02:12:11;98066.75;;;18.50;73.76
21594;BME280;10959;51.328;7.322;2022-09-09T02:14:43;98059.72;;;18.57;73.36
21594;BME280;10959;51.328;7.322;2022-09-09T02:17:11;98055.25;;;18.56;73.39
21594;BME280;10959;51.328;7.322;2022-09-09T02:19:44;98059.84;;;18.45;73.58
21594;BME280;10959;51.328;7.322;2022-09-09T02:22:12;98058.88;;;18.46;73.86
21594;BME280;10959;51.328;7.322;2022-09-09T02:24:39;98059.84;;;18.45;73.68
21594;BME280;10959;51.328;7.322;2022-09-09T02:27:08;98062.72;;;18.44;73.69
21594;BME280;10959;51.328;7.322;2022-09-09T02:29:37;98060.00;;;18.44;73.38
21594;BME280;10959;51.328;7.322;2022-09-09T02:32:10;98061.28;;;18.50;73.42
21594;BME280;10959;51.328;7.322;2022-09-09T02:34:42;98063.03;;;18.51;73.55
21594;BME280;10959;51.328;7.322;2022-09-09T02:37:10;98067.59;;;18.40;73.84
21594;BME280;10959;51.328;7.322;2022-09-09T02:39:38;98062.44;;;18.37;73.80
21594;BME280;10959;51.328;7.322;2022-09-09T02:42:05;98069.19;;;18.33;73.79
21594;BME280;10959;51.328;7.322;2022-09-09T02:44:33;98068.19;;;18.34;73.65
21594;BME280;10959;51.328;7.322;2022-09-09T02:47:27;98061.28;;;18.10;74.09
21594;BME280;10959;51.328;7.322;2022-09-09T02:50:03;98070.06;;;18.24;73.77
21594;BME280;10959;51.328;7.322;2022-09-09T02:52:37;98058.16;;;18.25;73.73
21594;BME280;10959;51.328;7.322;2022-09-09T02:55:12;98065.19;;;18.18;74.08
21594;BME280;10959;51.328;7.322;2022-09-09T02:57:43;98061.28;;;18.30;73.72
21594;BME280;10959;51.328;7.322;2022-09-09T03:00:12;98059.31;;;18.32;74.13
21594;BME280;10959;51.328;7.322;2022-09-09T03:02:41;98057.28;;;18.34;74.11
21594;BME280;10959;51.328;7.322;2022-09-09T03:05:08;98061.28;;;18.30;74.30
21594;BME280;10959;51.328;7.322;2022-09-09T03:07:34;98053.84;;;18.32;74.03
21594;BME280;10959;51.328;7.322;2022-09-09T03:10:01;98059.00;;;18.35;73.83
21594;BME280;10959;51.328;7.322;2022-09-09T03:12:28;98055.28;;;18.36;73.92
21594;BME280;10959;51.328;7.322;2022-09-09T03:14:54;98054.00;;;18.30;74.18
21594;BME280;10959;51.328;7.322;2022-09-09T03:17:21;98046.97;;;18.28;74.46
21594;BME280;10959;51.328;7.322;2022-09-09T03:19:49;98043.34;;;18.27;74.01
21594;BME280;10959;51.328;7.322;2022-09-09T03:22:17;98042.06;;;18.22;74.39
21594;BME280;10959;51.328;7.322;2022-09-09T03:24:44;98043.50;;;18.26;74.12
21594;BME280;10959;51.328;7.322;2022-09-09T03:27:11;98039.78;;;18.27;74.11
21594;BME280;10959;51.328;7.322;2022-09-09T03:29:39;98035.78;;;18.21;74.24
21594;BME280;10959;51.328;7.322;2022-09-09T03:32:06;98040.38;;;18.21;74.63
21594;BME280;10959;51.328;7.322;2022-09-09T03:34:35;98043.50;;;18.16;74.50
21594;BME280;10959;51.328;7.322;2022-09-09T03:37:06;98042.34;;;18.19;74.21
21594;BME280;10959;51.328;7.322;2022-09-09T03:39:33;98040.38;;;18.21;74.41
21594;BME280;10959;51.328;7.322;2022-09-09T03:41:59;98040.66;;;18.18;74.14
21594;BME280;10959;51.328;7.322;2022-09-09T03:44:29;98036.34;;;18.15;74.40
21594;BME280;10959;51.328;7.322;2022-09-09T03:46:55;98037.50;;;18.12;74.35
21594;BME280;10959;51.328;7.322;2022-09-09T03:49:22;98038.06;;;18.06;75.00
21594;BME280;10959;51.328;7.322;2022-09-09T03:51:49;98049.22;;;18.03;74.73
21594;BME280;10959;51.328;7.322;2022-09-09T03:54:17;98037.19;;;18.06;74.48
21594;BME280;10959;51.328;7.322;2022-09-09T03:56:43;98040.06;;;18.04;74.90
21594;BME280;10959;51.328;7.322;2022-09-09T03:59:10;98035.50;;;18.05;74.98
21594;BME280;10959;51.328;7.322;2022-09-09T04:01:37;98046.94;;;18.08;75.19
21594;BME280;10959;51.328;7.322;2022-09-09T04:04:05;98043.38;;;18.08;74.90
21594;BME280;10959;51.328;7.322;2022-09-09T04:06:33;98040.66;;;17.98;75.29
21594;BME280;10959;51.328;7.322;2022-09-09T04:08:59;98049.22;;;18.03;75.22
21594;BME280;10959;51.328;7.322;2022-09-09T04:11:29;98040.66;;;18.08;75.21
21594;BME280;10959;51.328;7.322;2022-09-09T04:13:55;98045.81;;;18.11;74.75
21594;BME280;10959;51.328;7.322;2022-09-09T04:16:22;98046.38;;;18.14;75.09
21594;BME280;10959;51.328;7.322;2022-09-09T04:18:48;98052.13;;;18.11;75.16
21594;BME280;10959;51.328;7.322;2022-09-09T04:21:15;98047.25;;;18.05;75.45
21594;BME280;10959;51.328;7.322;2022-09-09T04:23:42;98042.38;;;17.99;75.50
21594;BME280;10959;51.328;7.322;2022-09-09T04:26:09;98048.38;;;18.03;75.65
21594;BME280;10959;51.328;7.322;2022-09-09T04:28:37;98041.50;;;18.08;75.39
21594;BME280;10959;51.328;7.322;2022-09-09T04:31:04;98049.84;;;18.17;75.45
21594;BME280;10959;51.328;7.322;2022-09-09T04:33:31;98047.94;;;18.17;75.32
21594;BME280;10959;51.328;7.322;2022-09-09T04:35:58;98048.94;;;18.16;75.30
21594;BME280;10959;51.328;7.322;2022-09-09T04:38:24;98051.56;;;18.18;75.48
21594;BME280;10959;51.328;7.322;2022-09-09T04:40:51;98047.81;;;18.19;74.81
21594;BME280;10959;51.328;7.322;2022-09-09T04:43:19;98042.94;;;18.12;75.29
21594;BME280;10959;51.328;7.322;2022-09-09T04:45:49;98043.53;;;18.06;74.92
21594;BME280;10959;51.328;7.322;2022-09-09T04:48:16;98051.81;;;18.14;75.29
21594;BME280;10959;51.328;7.322;2022-09-09T04:50:43;98047.41;;;18.13;75.33
21594;BME280;10959;51.328;7.322;2022-09-09T04:53:09;98042.94;;;18.12;75.53
21594;BME280;10959;51.328;7.322;2022-09-09T04:55:36;98039.47;;;18.10;75.32
21594;BME280;10959;51.328;7.322;2022-09-09T04:58:03;98040.06;;;18.14;75.26
21594;BME280;10959;51.328;7.322;2022-09-09T05:00:30;98052.41;;;18.18;75.00
21594;BME280;10959;51.328;7.322;2022-09-09T05:03:02;98040.91;;;18.14;75.12
21594;BME280;10959;51.328;7.322;2022-09-09T05:05:29;98042.06;;;18.22;74.80
21594;BME280;10959;51.328;7.322;2022-09-09T05:08:00;98044.66;;;18.13;74.86
21594;BME280;10959;51.328;7.322;2022-09-09T05:10:27;98037.22;;;18.25;75.03
21594;BME280;10959;51.328;7.322;2022-09-09T05:12:54;98039.78;;;18.27;74.83
21594;BME280;10959;51.328;7.322;2022-09-09T05:15:21;98044.53;;;18.25;74.99
21594;BME280;10959;51.328;7.322;2022-09-09T05:17:47;98040.78;;;18.26;75.17
21594;BME280;10959;51.328;7.322;2022-09-09T05:20:15;98038.78;;;18.28;75.29
21594;BME280;10959;51.328;7.322;2022-09-09T05:22:41;98044.38;;;18.17;75.35
21594;BME280;10959;51.328;7.322;2022-09-09T05:25:08;98045.53;;;18.14;75.16
21594;BME280;10959;51.328;7.322;2022-09-09T05:27:35;98036.91;;;18.19;75.38
21594;BME280;10959;51.328;7.322;2022-09-09T05:30:01;98048.94;;;18.26;75.23
21594;BME280;10959;51.328;7.322;2022-09-09T05:32:29;98042.81;;;18.24;75.00
21594;BME280;10959;51.328;7.322;2022-09-09T05:34:59;98042.50;;;18.27;75.06
21594;BME280;10959;51.328;7.322;2022-09-09T05:37:28;98042.81;;;18.24;75.26
21594;BME280;10959;51.328;7.322;2022-09-09T05:39:55;98047.53;;;18.22;75.40
21594;BME280;10959;51.328;7.322;2022-09-09T05:42:23;98044.09;;;18.20;75.45
21594;BME280;10959;51.328;7.322;2022-09-09T05:44:49;98041.38;;;18.20;75.63
21594;BME280;10959;51.328;7.322;2022-09-09T05:47:19;98050.69;;;18.27;75.53
21594;BME280;10959;51.328;7.322;2022-09-09T05:49:45;98043.22;;;18.29;75.08
21594;BME280;10959;51.328;7.322;2022-09-09T05:52:12;98045.81;;;18.21;75.55
21594;BME280;10959;51.328;7.322;2022-09-09T05:54:40;98050.97;;;18.24;75.68
21594;BME280;10959;51.328;7.322;2022-09-09T05:57:07;98048.94;;;18.26;75.66
21594;BME280;10959;51.328;7.322;2022-09-09T05:59:34;98052.41;;;18.28;75.58
21594;BME280;10959;51.328;7.322;2022-09-09T06:02:00;98055.16;;;18.28;75.54
21594;BME280;10959;51.328;7.322;2022-09-09T06:04:27;98063.59;;;18.25;75.71
21594;BME280;10959;51.328;7.322;2022-09-09T06:06:53;98055.84;;;18.20;75.66
21594;BME280;10959;51.328;7.322;2022-09-09T06:09:20;98052.84;;;18.13;75.87
21594;BME280;10959;51.328;7.322;2022-09-09T06:11:48;98056.69;;;18.01;76.46
21594;BME280;10959;51.328;7.322;2022-09-09T06:14:14;98054.69;;;18.03;76.60
21594;BME280;10959;51.328;7.322;2022-09-09T06:16:43;98065.31;;;18.06;76.14
21594;BME280;10959;51.328;7.322;2022-09-09T06:19:11;98062.16;;;18.11;76.29
21594;BME280;10959;51.328;7.322;2022-09-09T06:21:38;98062.16;;;18.11;76.42
21594;BME280;10959;51.328;7.322;2022-09-09T06:24:05;98051.13;;;18.12;76.04
21594;BME280;10959;51.328;7.322;2022-09-09T06:26:34;98062.00;;;18.12;76.51
21594;BME280;10959;51.328;7.322;2022-09-09T06:29:03;98054.84;;;18.11;76.82
21594;BME280;10959;51.328;7.322;2022-09-09T06:31:31;98064.44;;;18.16;76.76
21594;BME280;10959;51.328;7.322;2022-09-09T06:34:00;98075.50;;;18.24;76.41
21594;BME280;10959;51.328;7.322;2022-09-09T06:36:28;98068.91;;;18.26;76.48
21594;BME280;10959;51.328;7.322;2022-09-09T06:38:56;98067.03;;;18.27;75.88
21594;BME280;10959;51.328;7.322;2022-09-09T06:41:24;98056.72;;;18.21;76.53
21594;BME280;10959;51.328;7.322;2022-09-09T06:43:52;98062.44;;;17.98;77.09
21594;BME280;10959;51.328;7.322;2022-09-09T06:46:21;98059.84;;;17.96;77.23
21594;BME280;10959;51.328;7.322;2022-09-09T06:48:48;98068.88;;;17.97;77.44
21594;BME280;10959;51.328;7.322;2022-09-09T06:51:16;98062.13;;;17.91;77.73
21594;BME280;10959;51.328;7.322;2022-09-09T06:53:44;98063.56;;;17.95;77.21
21594;BME280;10959;51.328;7.322;2022-09-09T06:56:20;98066.97;;;17.88;77.00
21594;BME280;10959;51.328;7.322;2022-09-09T06:58:47;98071.75;;;18.05;76.90
21594;BME280;10959;51.328;7.322;2022-09-09T07:01:15;98072.44;;;17.98;76.75
21594;BME280;10959;51.328;7.322;2022-09-09T07:03:46;98067.88;;;17.98;76.86
21594;BME280;10959;51.328;7.322;2022-09-09T07:06:14;98073.34;;;17.98;76.75
21594;BME280;10959;51.328;7.322;2022-09-09T07:08:42;98071.75;;;17.95;76.52
21594;BME280;10959;51.328;7.322;2022-09-09T07:11:09;98081.06;;;18.03;76.64
21594;BME280;10959;51.328;7.322;2022-09-09T07:13:36;98078.19;;;18.04;76.24
21594;BME280;10959;51.328;7.322;2022-09-09T07:16:04;98085.38;;;18.05;76.16
21594;BME280;10959;51.328;7.322;2022-09-09T07:18:31;98084.50;;;18.14;76.03
21594;BME280;10959;51.328;7.322;2022-09-09T07:21:00;98088.13;;;18.15;76.15
21594;BME280;10959;51.328;7.322;2022-09-09T07:23:27;98084.25;;;18.18;75.92
21594;BME280;10959;51.328;7.322;2022-09-09T07:25:54;98091.13;;;18.22;76.02
21594;BME280;10959;51.328;7.322;2022-09-09T07:28:20;98094.00;;;18.30;76.23
21594;BME280;10959;51.328;7.322;2022-09-09T07:30:53;98091.56;;;18.46;75.36
21594;BME280;10959;51.328;7.322;2022-09-09T07:33:20;98086.38;;;18.63;75.45
21594;BME280;10959;51.328;7.322;2022-09-09T07:35:47;98090.84;;;18.64;74.78
21594;BME280;10959;51.328;7.322;2022-09-09T07:38:15;98089.94;;;18.73;74.49
21594;BME280;10959;51.328;7.322;2022-09-09T07:40:42;98090.38;;;18.78;74.68
21594;BME280;10959;51.328;7.322;2022-09-09T07:43:09;98092.53;;;18.94;73.91
21594;BME280;10959;51.328;7.322;2022-09-09T07:45:36;98096.50;;;19.20;73.35
21594;BME280;10959;51.328;7.322;2022-09-09T07:48:03;98094.75;;;19.56;72.96
21594;BME280;10959;51.328;7.322;2022-09-09T07:50:30;98100.53;;;19.91;71.77
21594;BME280;10959;51.328;7.322;2022-09-09T07:52:56;98093.13;;;20.19;70.88
21594;BME280;10959;51.328;7.322;2022-09-09T07:55:24;98098.22;;;20.32;70.17
21594;BME280;10959;51.328;7.322;2022-09-09T07:57:52;98092.06;;;20.48;69.65
21594;BME280;10959;51.328;7.322;2022-09-09T08:00:19;98098.16;;;20.42;69.15
21594;BME280;10959;51.328;7.322;2022-09-09T08:02:47;98090.75;;;20.34;69.16
21594;BME280;10959;51.328;7.322;2022-09-09T08:05:14;98106.75;;;20.29;69.46
21594;BME280;10959;51.328;7.322;2022-09-09T08:07:41;98102.91;;;20.22;69.23
21594;BME280;10959;51.328;7.322;2022-09-09T08:10:09;98099.47;;;20.19;68.75
21594;BME280;10959;51.328;7.322;2022-09-09T08:12:37;98111.31;;;20.10;68.75
21594;BME280;10959;51.328;7.322;2022-09-09T08:15:04;98117.91;;;20.17;69.17
21594;BME280;10959;51.328;7.322;2022-09-09T08:17:31;98114.56;;;20.42;68.98
21594;BME280;10959;51.328;7.322;2022-09-09T08:19:58;98102.91;;;20.58;67.86
21594;BME280;10959;51.328;7.322;2022-09-09T08:22:30;98101.22;;;20.57;66.96
21594;BME280;10959;51.328;7.322;2022-09-09T08:24:56;98109.41;;;20.57;67.27
21594;BME280;10959;51.328;7.322;2022-09-09T08:27:23;98107.84;;;20.90;66.41
21594;BME280;10959;51.328;7.322;2022-09-09T08:29:52;98099.91;;;21.05;66.49
21594;BME280;10959;51.328;7.322;2022-09-09T08:32:18;98104.41;;;21.14;65.51
21594;BME280;10959;51.328;7.322;2022-09-09T08:34:45;98104.59;;;21.47;64.84
21594;BME280;10959;51.328;7.322;2022-09-09T08:37:12;98104.75;;;21.64;64.66
21594;BME280;10959;51.328;7.322;2022-09-09T08:39:39;98110.94;;;21.74;64.56
21594;BME280;10959;51.328;7.322;2022-09-09T08:42:14;98101.03;;;21.81;63.64
21594;BME280;10959;51.328;7.322;2022-09-09T08:44:55;98111.00;;;21.90;61.89
21594;BME280;10959;51.328;7.322;2022-09-09T08:47:34;98110.00;;;22.00;61.38
21594;BME280;10959;51.328;7.322;2022-09-09T08:50:13;98112.47;;;22.27;60.88
21594;BME280;10959;51.328;7.322;2022-09-09T08:52:50;98116.31;;;22.43;60.19
21594;BME280;10959;51.328;7.322;2022-09-09T08:55:24;98108.78;;;22.37;58.61
21594;BME280;10959;51.328;7.322;2022-09-09T08:57:55;98114.63;;;22.58;59.08
21594;BME280;10959;51.328;7.322;2022-09-09T09:00:32;98117.13;;;22.27;57.57
21594;BME280;10959;51.328;7.322;2022-09-09T09:03:06;98117.97;;;22.27;57.87
21594;BME280;10959;51.328;7.322;2022-09-09T09:05:40;98111.28;;;22.30;58.24
21594;BME280;10959;51.328;7.322;2022-09-09T09:08:18;98117.13;;;22.27;57.59
21594;BME280;10959;51.328;7.322;2022-09-09T09:10:48;98127.34;;;22.59;55.93
21594;BME280;10959;51.328;7.322;2022-09-09T09:13:18;98122.19;;;22.89;55.96
21594;BME280;10959;51.328;7.322;2022-09-09T09:15:51;98115.00;;;23.21;56.59
21594;BME280;10959;51.328;7.322;2022-09-09T09:18:19;98133.13;;;23.55;54.86
21594;BME280;10959;51.328;7.322;2022-09-09T09:20:50;98127.31;;;23.42;55.20
21594;BME280;10959;51.328;7.322;2022-09-09T09:23:23;98119.13;;;23.17;54.90
21594;BME280;10959;51.328;7.322;2022-09-09T09:25:52;98115.84;;;22.89;54.80
21594;BME280;10959;51.328;7.322;2022-09-09T09:28:24;98125.63;;;22.67;56.84
21594;BME280;10959;51.328;7.322;2022-09-09T09:30:55;98130.56;;;22.55;57.42
21594;BME280;10959;51.328;7.322;2022-09-09T09:33:26;98132.63;;;22.53;56.68
21594;BME280;10959;51.328;7.322;2022-09-09T09:35:55;98125.50;;;22.25;57.39
21594;BME280;10959;51.328;7.322;2022-09-09T09:38:23;98124.91;;;21.97;57.15
21594;BME280;10959;51.328;7.322;2022-09-09T09:40:52;98118.88;;;21.85;58.66
21594;BME280;10959;51.328;7.322;2022-09-09T09:43:21;98126.38;;;21.83;58.95
21594;BME280;10959;51.328;7.322;2022-09-09T09:45:50;98131.47;;;21.70;58.30
21594;BME280;10959;51.328;7.322;2022-09-09T09:48:18;98131.47;;;21.70;58.65
21594;BME280;10959;51.328;7.322;2022-09-09T09:50:49;98128.41;;;21.73;58.18
21594;BME280;10959;51.328;7.322;2022-09-09T09:53:21;98135.38;;;21.94;56.60
21594;BME280;10959;51.328;7.322;2022-09-09T09:55:54;98128.63;;;22.31;55.98
21594;BME280;10959;51.328;7.322;2022-09-09T09:58:22;98138.47;;;22.66;55.10
21594;BME280;10959;51.328;7.322;2022-09-09T10:00:51;98135.56;;;22.84;56.38
21594;BME280;10959;51.328;7.322;2022-09-09T10:03:25;98137.97;;;22.79;55.82
21594;BME280;10959;51.328;7.322;2022-09-09T10:05:52;98139.00;;;22.86;55.40
21594;BME280;10959;51.328;7.322;2022-09-09T10:08:20;98132.16;;;22.82;54.79
21594;BME280;10959;51.328;7.322;2022-09-09T10:10:55;98128.03;;;22.70;55.41
21594;BME280;10959;51.328;7.322;2022-09-09T10:13:27;98129.75;;;22.71;54.29
21594;BME280;10959;51.328;7.322;2022-09-09T10:16:04;98131.94;;;22.59;53.96
21594;BME280;10959;51.328;7.322;2022-09-09T10:18:56;98124.53;;;22.35;55.00
21594;BME280;10959;51.328;7.322;2022-09-09T10:21:46;98129.63;;;22.21;54.52
21594;BME280;10959;51.328;7.322;2022-09-09T10:24:36;98131.97;;;22.16;55.83
21594;BME280;10959;51.328;7.322;2022-09-09T10:27:14;98127.06;;;22.28;54.28
21594;BME280;10959;51.328;7.322;2022-09-09T10:29:59;98122.75;;;22.17;55.46
21594;BME280;10959;51.328;7.322;2022-09-09T10:32:48;98118.28;;;22.08;53.26
21594;BME280;10959;51.328;7.322;2022-09-09T10:35:27;98123.88;;;21.98;53.96
21594;BME280;10959;51.328;7.322;2022-09-09T10:38:12;98122.34;;;21.96;54.13
21594;BME280;10959;51.328;7.322;2022-09-09T10:40:44;98120.25;;;21.89;54.91
21594;BME280;10959;51.328;7.322;2022-09-09T10:43:24;98122.28;;;21.79;54.90
21594;BME280;10959;51.328;7.322;2022-09-09T10:46:01;98123.41;;;21.68;54.49
21594;BME280;10959;51.328;7.322;2022-09-09T10:48:41;98128.25;;;21.48;55.41
21594;BME280;10959;51.328;7.322;2022-09-09T10:51:21;98119.28;;;22.07;55.82
21594;BME280;10959;51.328;7.322;2022-09-09T10:53:57;98114.44;;;22.35;55.45
21594;BME280;10959;51.328;7.322;2022-09-09T10:56:29;98124.59;;;22.59;54.54
21594;BME280;10959;51.328;7.322;2022-09-09T10:59:00;98113.59;;;22.51;53.70
21594;BME280;10959;51.328;7.322;2022-09-09T11:01:43;98108.72;;;22.29;54.10
21594;BME280;10959;51.328;7.322;2022-09-09T11:04:16;98111.19;;;22.65;54.93
21594;BME280;10959;51.328;7.322;2022-09-09T11:06:49;98108.44;;;22.98;54.10
21594;BME280;10959;51.328;7.322;2022-09-09T11:09:21;98100.75;;;23.09;54.12
21594;BME280;10959;51.328;7.322;2022-09-09T11:11:52;98102.94;;;23.30;53.37
21594;BME280;10959;51.328;7.322;2022-09-09T11:14:24;98110.16;;;23.32;52.37
21594;BME280;10959;51.328;7.322;2022-09-09T11:16:56;98096.75;;;23.37;51.62
21594;BME280;10959;51.328;7.322;2022-09-09T11:19:30;98107.59;;;23.30;51.73
21594;BME280;10959;51.328;7.322;2022-09-09T11:22:05;98111.56;;;23.19;52.71
21594;BME280;10959;51.328;7.322;2022-09-09T11:24:37;98108.47;;;23.22;51.73
21594;BME280;10959;51.328;7.322;2022-09-09T11:27:10;98102.28;;;23.12;52.52
21594;BME280;10959;51.328;7.322;2022-09-09T11:29:50;98109.47;;;23.05;52.36
21594;BME280;10959;51.328;7.322;2022-09-09T11:32:33;98100.03;;;22.99;52.07
21594;BME280;10959;51.328;7.322;2022-09-09T11:35:14;98101.59;;;23.10;52.56
21594;BME280;10959;51.328;7.322;2022-09-09T11:38:05;98103.66;;;23.08;50.67
21594;BME280;10959;51.328;7.322;2022-09-09T11:40:37;98108.78;;;23.27;50.52
21594;BME280;10959;51.328;7.322;2022-09-09T11:43:08;98098.50;;;23.29;50.49
21594;BME280;10959;51.328;7.322;2022-09-09T11:45:37;98099.81;;;23.42;50.33
21594;BME280;10959;51.328;7.322;2022-09-09T11:48:05;98095.06;;;23.27;50.11
21594;BME280;10959;51.328;7.322;2022-09-09T11:50:57;98103.47;;;23.09;49.84
21594;BME280;10959;51.328;7.322;2022-09-09T11:53:26;98090.19;;;23.46;51.50
21594;BME280;10959;51.328;7.322;2022-09-09T11:56:04;98098.50;;;23.21;50.27
21594;BME280;10959;51.328;7.322;2022-09-09T11:58:37;98094.38;;;23.09;49.38
21594;BME280;10959;51.328;7.322;2022-09-09T12:01:13;98091.13;;;22.97;51.50
21594;BME280;10959;51.328;7.322;2022-09-09T12:03:43;98086.16;;;23.17;51.43
21594;BME280;10959;51.328;7.322;2022-09-09T12:06:15;98086.13;;;23.09;51.81
21594;BME280;10959;51.328;7.322;2022-09-09T12:08:48;98089.94;;;23.00;51.72
21594;BME280;10959;51.328;7.322;2022-09-09T12:11:24;98094.03;;;22.54;51.63
21594;BME280;10959;51.328;7.322;2022-09-09T12:13:55;98088.91;;;22.51;53.31
21594;BME280;10959;51.328;7.322;2022-09-09T12:16:31;98103.13;;;22.38;52.91
21594;BME280;10959;51.328;7.322;2022-09-09T12:19:14;98102.19;;;22.21;54.15
21594;BME280;10959;51.328;7.322;2022-09-09T12:21:45;98117.69;;;22.39;55.12
21594;BME280;10959;51.328;7.322;2022-09-09T12:24:22;98125.91;;;22.39;55.89
21594;BME280;10959;51.328;7.322;2022-09-09T12:26:56;98109.44;;;22.39;55.91
21594;BME280;10959;51.328;7.322;2022-09-09T12:29:29;98107.06;;;22.44;56.60
21594;BME280;10959;51.328;7.322;2022-09-09T12:32:06;98102.63;;;22.51;56.56
21594;BME280;10959;51.328;7.322;2022-09-09T12:34:38;98104.19;;;22.62;55.51
21594;BME280;10959;51.328;7.322;2022-09-09T12:37:11;98090.81;;;22.84;55.73
21594;BME280;10959;51.328;7.322;2022-09-09T12:39:45;98091.66;;;22.84;56.16
21594;BME280;10959;51.328;7.322;2022-09-09T12:42:18;98089.06;;;22.99;55.05
21594;BME280;10959;51.328;7.322;2022-09-09T12:44:52;98084.44;;;23.00;53.46
21594;BME280;10959;51.328;7.322;2022-09-09T12:47:20;98093.00;;;23.05;52.19
21594;BME280;10959;51.328;7.322;2022-09-09T12:49:48;98088.22;;;22.99;51.68
21594;BME280;10959;51.328;7.322;2022-09-09T12:52:20;98096.78;;;22.87;52.21
21594;BME280;10959;51.328;7.322;2022-09-09T12:54:50;98095.06;;;22.86;52.17
21594;BME280;10959;51.328;7.322;2022-09-09T12:57:19;98094.91;;;22.63;50.27
21594;BME280;10959;51.328;7.322;2022-09-09T12:59:46;98087.19;;;22.58;51.84
21594;BME280;10959;51.328;7.322;2022-09-09T13:02:21;98094.03;;;22.46;51.61
21594;BME280;10959;51.328;7.322;2022-09-09T13:04:48;98093.38;;;22.69;52.00
21594;BME280;10959;51.328;7.322;2022-09-09T13:07:17;98088.91;;;22.84;52.21
21594;BME280;10959;51.328;7.322;2022-09-09T13:09:44;98089.25;;;22.89;52.72
21594;BME280;10959;51.328;7.322;2022-09-09T13:12:14;98080.84;;;22.91;52.98
21594;BME280;10959;51.328;7.322;2022-09-09T13:14:43;98078.59;;;22.94;52.55
21594;BME280;10959;51.328;7.322;2022-09-09T13:17:19;98081.38;;;22.78;52.89
21594;BME280;10959;51.328;7.322;2022-09-09T13:19:47;98080.66;;;22.84;53.37